createdAt,value
2022-10-01T00:01:04.193Z,57.78
2022-10-01T00:03:30.573Z,57.62
2022-10-01T00:05:56.908Z,57.27
2022-10-01T00:08:23.244Z,58.00
2022-10-01T00:10:49.568Z,58.16
2022-10-01T00:13:15.913Z,58.83
2022-10-01T00:15:42.248Z,58.05
2022-10-01T00:18:08.586Z,58.29
2022-10-01T00:20:34.935Z,58.39
2022-10-01T00:23:01.280Z,57.51
2022-10-01T00:25:27.609Z,57.58
2022-10-01T00:27:53.998Z,57.19
2022-10-01T00:30:20.365Z,56.85
2022-10-01T00:32:46.705Z,56.30
2022-10-01T00:35:13.058Z,56.63
2022-10-01T00:37:39.445Z,56.50
2022-10-01T00:40:05.796Z,56.18
2022-10-01T00:42:32.158Z,56.45
2022-10-01T00:44:58.513Z,56.38
2022-10-01T00:47:24.849Z,56.42
2022-10-01T00:49:51.184Z,56.33
2022-10-01T00:52:17.515Z,56.43
2022-10-01T00:54:43.868Z,56.58
2022-10-01T00:57:10.223Z,57.14
2022-10-01T00:59:36.557Z,57.63
2022-10-01T01:02:02.936Z,57.42
2022-10-01T01:04:29.345Z,57.18
2022-10-01T01:06:55.709Z,58.17
2022-10-01T01:09:22.050Z,57.62
2022-10-01T01:11:48.404Z,58.73
2022-10-01T01:14:14.746Z,58.08
2022-10-01T01:16:41.081Z,59.13
2022-10-01T01:19:07.413Z,59.74
2022-10-01T01:21:34.131Z,58.84
2022-10-01T01:24:00.613Z,59.89
2022-10-01T01:26:26.950Z,59.34
2022-10-01T01:28:53.290Z,58.64
2022-10-01T01:31:19.652Z,58.54
2022-10-01T01:33:46.011Z,59.06
2022-10-01T01:36:12.342Z,59.28
2022-10-01T01:38:38.678Z,59.54
2022-10-01T01:41:05.001Z,59.99
2022-10-01T01:43:31.337Z,59.79
2022-10-01T01:45:57.713Z,59.44
2022-10-01T01:48:24.083Z,59.57
2022-10-01T01:50:50.405Z,59.55
2022-10-01T01:53:16.740Z,59.92
2022-10-01T01:55:43.080Z,59.92
2022-10-01T01:58:09.409Z,59.37
2022-10-01T02:00:35.741Z,59.52
2022-10-01T02:03:02.207Z,59.46
2022-10-01T02:05:28.596Z,59.47
2022-10-01T02:07:54.926Z,58.67
2022-10-01T02:10:21.255Z,59.68
2022-10-01T02:12:47.581Z,59.33
2022-10-01T02:15:13.910Z,58.98
2022-10-01T02:17:40.254Z,58.80
2022-10-01T02:20:06.603Z,58.86
2022-10-01T02:22:32.930Z,58.78
2022-10-01T02:24:59.257Z,59.96
2022-10-01T02:27:25.598Z,59.01
2022-10-01T02:29:51.931Z,58.27
2022-10-01T02:32:18.257Z,58.79
2022-10-01T02:34:44.598Z,57.95
2022-10-01T02:37:10.941Z,58.52
2022-10-01T02:39:37.279Z,57.89
2022-10-01T02:42:03.611Z,58.26
2022-10-01T02:44:29.956Z,58.23
2022-10-01T02:46:56.291Z,58.04
2022-10-01T02:49:22.615Z,58.07
2022-10-01T02:51:48.958Z,57.69
2022-10-01T02:54:15.290Z,57.79
2022-10-01T02:56:48.527Z,58.23
2022-10-01T02:59:15.280Z,57.71
2022-10-01T03:01:41.700Z,57.67
2022-10-01T03:04:08.060Z,57.52
2022-10-01T03:06:34.388Z,57.95
2022-10-01T03:09:00.731Z,57.60
2022-10-01T03:11:27.062Z,57.46
2022-10-01T03:13:53.401Z,57.80
2022-10-01T03:16:19.772Z,57.49
2022-10-01T03:18:46.125Z,56.79
2022-10-01T03:21:12.456Z,57.54
2022-10-01T03:23:38.789Z,57.40
2022-10-01T03:26:05.121Z,56.86
2022-10-01T03:28:31.539Z,58.17
2022-10-01T03:30:57.939Z,57.14
2022-10-01T03:33:24.283Z,58.03
2022-10-01T03:35:50.642Z,58.40
2022-10-01T03:38:16.978Z,57.54
2022-10-01T03:40:43.311Z,57.40
2022-10-01T03:43:09.642Z,57.35
2022-10-01T03:45:36.037Z,57.48
2022-10-01T03:48:02.393Z,57.42
2022-10-01T03:50:28.734Z,57.77
2022-10-01T03:52:55.056Z,57.33
2022-10-01T03:55:21.381Z,57.47
2022-10-01T03:57:47.707Z,56.79
2022-10-01T04:00:14.067Z,56.63
2022-10-01T04:02:40.471Z,57.21
2022-10-01T04:05:06.870Z,57.60
2022-10-01T04:07:33.203Z,57.83
2022-10-01T04:09:59.535Z,56.92
2022-10-01T04:12:25.865Z,57.09
2022-10-01T04:14:52.229Z,56.95
2022-10-01T04:17:18.558Z,57.04
2022-10-01T04:19:44.902Z,57.15
2022-10-01T04:22:11.277Z,58.11
2022-10-01T04:24:37.604Z,57.69
2022-10-01T04:27:03.929Z,57.83
2022-10-01T04:29:30.315Z,57.85
2022-10-01T04:31:56.677Z,57.71
2022-10-01T04:34:23.070Z,58.37
2022-10-01T04:36:49.416Z,58.79
2022-10-01T04:39:15.756Z,58.29
2022-10-01T04:41:42.092Z,57.81
2022-10-01T04:44:08.418Z,58.25
2022-10-01T04:46:34.817Z,57.98
2022-10-01T04:49:01.216Z,58.15
2022-10-01T04:51:27.542Z,57.98
2022-10-01T04:53:53.877Z,57.51
2022-10-01T04:56:20.203Z,58.33
2022-10-01T04:58:46.528Z,57.29
2022-10-01T05:01:12.886Z,57.33
2022-10-01T05:03:39.245Z,57.76
2022-10-01T05:06:05.593Z,58.57
2022-10-01T05:08:31.930Z,57.94
2022-10-01T05:10:58.265Z,58.09
2022-10-01T05:13:24.609Z,57.42
2022-10-01T05:15:50.991Z,57.83
2022-10-01T05:18:17.357Z,57.95
2022-10-01T05:20:43.691Z,57.38
2022-10-01T05:23:10.020Z,57.65
2022-10-01T05:25:36.348Z,57.50
2022-10-01T05:28:02.776Z,56.92
2022-10-01T05:30:29.132Z,57.55
2022-10-01T05:32:55.465Z,57.31
2022-10-01T05:35:21.796Z,56.20
2022-10-01T05:37:48.130Z,56.75
2022-10-01T05:40:14.472Z,56.84
2022-10-01T05:42:40.814Z,57.24
2022-10-01T05:45:07.147Z,56.83
2022-10-01T05:47:33.493Z,57.56
2022-10-01T05:49:59.838Z,57.56
2022-10-01T05:52:26.169Z,57.46
2022-10-01T05:54:52.521Z,57.20
2022-10-01T05:57:18.858Z,57.58
2022-10-01T05:59:45.207Z,57.43
2022-10-01T06:02:11.690Z,57.78
2022-10-01T06:04:41.193Z,57.10
2022-10-01T06:07:07.736Z,57.60
2022-10-01T06:09:34.080Z,57.94
2022-10-01T06:12:00.416Z,56.78
2022-10-01T06:14:26.768Z,57.52
2022-10-01T06:16:53.188Z,56.83
2022-10-01T06:19:19.547Z,57.51
2022-10-01T06:21:45.915Z,58.05
2022-10-01T06:24:12.260Z,58.09
2022-10-01T06:26:38.600Z,57.34
2022-10-01T06:29:04.958Z,58.68
2022-10-01T06:31:31.410Z,57.82
2022-10-01T06:33:57.978Z,58.38
2022-10-01T06:36:24.300Z,58.96
2022-10-01T06:38:50.637Z,58.94
2022-10-01T06:41:16.972Z,58.06
2022-10-01T06:43:43.316Z,58.46
2022-10-01T06:46:09.731Z,57.50
2022-10-01T06:48:36.073Z,57.40
2022-10-01T06:51:02.408Z,56.91
2022-10-01T06:53:28.755Z,57.83
2022-10-01T06:55:55.098Z,57.12
2022-10-01T06:58:21.430Z,56.52
2022-10-01T07:00:47.825Z,57.45
2022-10-01T07:03:14.157Z,57.05
2022-10-01T07:05:40.511Z,56.81
2022-10-01T07:08:06.844Z,57.61
2022-10-01T07:10:33.177Z,57.85
2022-10-01T07:12:59.519Z,57.75
2022-10-01T07:15:25.855Z,56.82
2022-10-01T07:17:52.202Z,57.73
2022-10-01T07:20:18.546Z,56.73
2022-10-01T07:22:44.926Z,55.73
2022-10-01T07:25:11.247Z,56.20
2022-10-01T07:27:37.584Z,55.19
2022-10-01T07:30:03.926Z,55.08
2022-10-01T07:32:30.268Z,54.99
2022-10-01T07:34:56.617Z,55.64
2022-10-01T07:37:22.947Z,55.34
2022-10-01T07:39:49.290Z,55.01
2022-10-01T07:42:15.624Z,55.11
2022-10-01T07:44:41.956Z,54.63
2022-10-01T07:47:08.310Z,55.35
2022-10-01T07:49:34.647Z,56.00
2022-10-01T07:52:00.984Z,55.90
2022-10-01T07:54:27.311Z,55.82
2022-10-01T07:56:53.642Z,55.39
2022-10-01T07:59:19.991Z,55.86
2022-10-01T08:01:46.345Z,55.80
2022-10-01T08:04:12.761Z,56.88
2022-10-01T08:06:39.105Z,56.75
2022-10-01T08:09:05.420Z,57.54
2022-10-01T08:11:31.976Z,57.69
2022-10-01T08:13:58.577Z,57.99
2022-10-01T08:16:24.922Z,57.84
2022-10-01T08:18:51.280Z,58.10
2022-10-01T08:21:17.620Z,58.08
2022-10-01T08:23:43.962Z,58.94
2022-10-01T08:26:10.311Z,60.47
2022-10-01T08:28:36.648Z,59.62
2022-10-01T08:31:02.977Z,60.11
2022-10-01T08:33:29.328Z,59.71
2022-10-01T08:35:55.661Z,60.12
2022-10-01T08:38:21.985Z,59.36
2022-10-01T08:40:48.347Z,59.54
2022-10-01T08:43:14.690Z,59.67
2022-10-01T08:45:41.066Z,59.09
2022-10-01T08:48:07.415Z,59.75
2022-10-01T08:50:33.751Z,59.43
2022-10-01T08:53:00.118Z,61.01
2022-10-01T08:55:26.455Z,60.14
2022-10-01T08:57:52.802Z,60.21
2022-10-01T09:00:19.144Z,60.54
2022-10-01T09:02:45.493Z,60.93
2022-10-01T09:05:11.842Z,60.40
2022-10-01T09:07:38.174Z,60.83
2022-10-01T09:10:04.504Z,59.47
2022-10-01T09:12:30.828Z,59.42
2022-10-01T09:14:57.175Z,60.29
2022-10-01T09:17:23.514Z,60.29
2022-10-01T09:19:49.849Z,59.98
2022-10-01T09:22:16.181Z,59.89
2022-10-01T09:24:42.513Z,60.26
2022-10-01T09:27:08.860Z,60.31
2022-10-01T09:29:35.197Z,59.97
2022-10-01T09:32:01.558Z,59.63
2022-10-01T09:34:27.920Z,59.93
2022-10-01T09:36:54.259Z,59.53
2022-10-01T09:39:20.598Z,59.37
2022-10-01T09:41:46.938Z,59.84
2022-10-01T09:44:16.769Z,60.33
2022-10-01T09:46:44.994Z,59.83
2022-10-01T09:49:11.332Z,60.13
2022-10-01T09:51:40.438Z,59.39
2022-10-01T09:54:07.106Z,58.89
2022-10-01T09:56:33.451Z,59.31
2022-10-01T09:58:59.784Z,58.02
2022-10-01T10:01:26.118Z,58.46
2022-10-01T10:03:52.465Z,57.08
2022-10-01T10:06:18.800Z,57.54
2022-10-01T10:08:45.145Z,57.14
2022-10-01T10:11:11.468Z,56.30
2022-10-01T10:13:37.801Z,56.00
2022-10-01T10:16:04.198Z,55.01
2022-10-01T10:18:30.577Z,54.73
2022-10-01T10:20:56.896Z,55.00
2022-10-01T10:23:23.250Z,53.81
2022-10-01T10:25:49.605Z,55.04
2022-10-01T10:28:16.014Z,53.43
2022-10-01T10:30:42.411Z,53.91
2022-10-01T10:33:08.762Z,55.81
2022-10-01T10:35:35.094Z,54.79
2022-10-01T10:38:01.422Z,52.92
2022-10-01T10:40:29.705Z,53.86
2022-10-01T10:42:56.310Z,53.74
2022-10-01T10:45:22.654Z,54.49
2022-10-01T10:47:49.009Z,53.44
2022-10-01T10:50:15.353Z,52.88
2022-10-01T10:52:45.536Z,53.42
2022-10-01T10:55:12.094Z,54.05
2022-10-01T10:57:38.407Z,53.62
2022-10-01T11:00:04.728Z,54.45
2022-10-01T11:02:31.184Z,55.22
2022-10-01T11:04:57.579Z,54.08
2022-10-01T11:07:23.912Z,54.36
2022-10-01T11:09:50.250Z,53.80
2022-10-01T11:12:16.568Z,53.60
2022-10-01T11:14:42.908Z,53.68
2022-10-01T11:17:09.280Z,53.95
2022-10-01T11:19:35.618Z,53.28
2022-10-01T11:22:01.959Z,53.38
2022-10-01T11:24:28.296Z,54.63
2022-10-01T11:26:54.635Z,55.00
2022-10-01T11:29:20.965Z,53.79
2022-10-01T11:31:47.373Z,55.02
2022-10-01T11:34:13.775Z,54.61
2022-10-01T11:36:40.147Z,54.79
2022-10-01T11:39:06.515Z,54.72
2022-10-01T11:41:32.851Z,56.42
2022-10-01T11:43:59.195Z,56.68
2022-10-01T11:46:25.552Z,56.02
2022-10-01T11:48:51.897Z,55.91
2022-10-01T11:51:18.249Z,57.00
2022-10-01T11:53:44.570Z,57.87
2022-10-01T11:56:10.904Z,57.40
2022-10-01T11:58:37.239Z,58.04
2022-10-01T12:01:03.572Z,57.58
2022-10-01T12:03:29.930Z,58.15
2022-10-01T12:05:56.417Z,59.26
2022-10-01T12:08:22.791Z,58.25
2022-10-01T12:10:49.112Z,58.62
2022-10-01T12:13:15.437Z,58.63
2022-10-01T12:15:41.814Z,59.99
2022-10-01T12:18:08.177Z,58.89
2022-10-01T12:20:34.520Z,59.26
2022-10-01T12:23:00.855Z,58.82
2022-10-01T12:25:27.189Z,59.49
2022-10-01T12:27:53.599Z,58.82
2022-10-01T12:30:19.990Z,59.68
2022-10-01T12:32:46.326Z,59.26
2022-10-01T12:35:12.669Z,59.79
2022-10-01T12:37:39.003Z,61.51
2022-10-01T12:40:05.343Z,61.35
2022-10-01T12:42:31.689Z,61.08
2022-10-01T12:44:58.050Z,62.06
2022-10-01T12:47:24.396Z,62.86
2022-10-01T12:49:50.741Z,63.39
2022-10-01T12:52:17.095Z,64.76
2022-10-01T12:54:43.441Z,65.71
2022-10-01T12:57:09.773Z,65.91
2022-10-01T12:59:36.103Z,65.25
2022-10-01T13:02:02.495Z,66.25
2022-10-01T13:04:28.842Z,66.08
2022-10-01T13:06:55.164Z,65.67
2022-10-01T13:09:21.498Z,66.43
2022-10-01T13:11:47.831Z,65.95
2022-10-01T13:14:14.180Z,66.08
2022-10-01T13:16:40.586Z,66.77
2022-10-01T13:19:06.999Z,66.02
2022-10-01T13:21:33.338Z,66.20
2022-10-01T13:23:59.676Z,66.83
2022-10-01T13:26:26.027Z,67.40
2022-10-01T13:28:52.370Z,67.05
2022-10-01T13:31:18.756Z,65.99
2022-10-01T13:33:45.154Z,66.15
2022-10-01T13:36:11.485Z,66.20
2022-10-01T13:38:37.823Z,65.82
2022-10-01T13:41:04.152Z,67.60
2022-10-01T13:43:30.488Z,67.65
2022-10-01T13:45:56.892Z,67.99
2022-10-01T13:48:23.247Z,67.58
2022-10-01T13:50:49.577Z,67.99
2022-10-01T13:53:15.909Z,67.91
2022-10-01T13:55:42.412Z,67.20
2022-10-01T13:58:08.733Z,68.03
2022-10-01T14:00:35.069Z,66.42
2022-10-01T14:03:01.456Z,66.00
2022-10-01T14:05:27.894Z,66.47
2022-10-01T14:07:54.232Z,66.79
2022-10-01T14:10:20.562Z,66.58
2022-10-01T14:12:46.898Z,66.44
2022-10-01T14:15:13.228Z,66.92
2022-10-01T14:17:39.555Z,66.32
2022-10-01T14:20:05.993Z,67.24
2022-10-01T14:22:32.359Z,67.01
2022-10-01T14:24:58.692Z,66.69
2022-10-01T14:27:25.031Z,66.00
2022-10-01T14:29:51.360Z,65.45
2022-10-01T14:32:17.700Z,65.60
2022-10-01T14:34:44.034Z,65.90
2022-10-01T14:37:13.763Z,65.90
2022-10-01T14:39:43.241Z,66.01
2022-10-01T14:42:16.616Z,64.82
2022-10-01T14:44:43.509Z,65.82
2022-10-01T14:47:09.841Z,65.33
2022-10-01T14:49:36.162Z,65.78
2022-10-01T14:52:02.507Z,66.83
2022-10-01T14:54:28.848Z,65.59
2022-10-01T14:56:55.190Z,67.42
2022-10-01T14:59:21.541Z,67.74
2022-10-01T15:01:47.877Z,68.19
2022-10-01T15:04:14.337Z,68.27
2022-10-01T15:06:40.758Z,66.87
2022-10-01T15:09:07.085Z,66.48
2022-10-01T15:11:33.446Z,66.69
2022-10-01T15:13:59.778Z,66.96
2022-10-01T15:16:26.173Z,67.40
2022-10-01T15:18:52.548Z,67.89
2022-10-01T15:21:18.890Z,68.26
2022-10-01T15:23:45.222Z,68.41
2022-10-01T15:26:11.573Z,68.21
2022-10-01T15:28:37.909Z,69.31
2022-10-01T15:31:04.271Z,68.83
2022-10-01T15:33:30.871Z,70.47
2022-10-01T15:35:57.198Z,70.24
2022-10-01T15:38:23.542Z,69.40
2022-10-01T15:40:49.877Z,69.38
2022-10-01T15:43:16.205Z,69.32
2022-10-01T15:45:42.553Z,69.96
2022-10-01T15:48:08.911Z,70.16
2022-10-01T15:50:35.242Z,70.08
2022-10-01T15:53:01.587Z,70.35
2022-10-01T15:55:27.964Z,70.30
2022-10-01T15:57:54.303Z,69.98
2022-10-01T16:00:20.654Z,69.72
2022-10-01T16:02:46.974Z,69.34
2022-10-01T16:05:13.308Z,69.35
2022-10-01T16:07:39.646Z,69.68
2022-10-01T16:10:05.974Z,70.19
2022-10-01T16:12:32.314Z,70.27
2022-10-01T16:14:58.646Z,69.97
2022-10-01T16:17:24.993Z,70.38
2022-10-01T16:19:51.319Z,70.65
2022-10-01T16:22:17.658Z,70.75
2022-10-01T16:24:43.979Z,70.22
2022-10-01T16:27:10.310Z,70.01
2022-10-01T16:29:36.689Z,69.65
2022-10-01T16:32:03.029Z,70.17
2022-10-01T16:34:29.357Z,69.85
2022-10-01T16:36:55.714Z,70.59
2022-10-01T16:39:22.118Z,69.71
2022-10-01T16:42:01.424Z,68.76
2022-10-01T16:44:32.899Z,68.52
2022-10-01T16:46:59.277Z,68.81
2022-10-01T16:49:25.602Z,67.98
2022-10-01T16:51:51.933Z,68.41
2022-10-01T16:54:18.264Z,68.90
2022-10-01T16:56:44.599Z,68.47
2022-10-01T16:59:10.961Z,67.65
2022-10-01T17:01:37.364Z,67.80
2022-10-01T17:04:03.704Z,67.97
2022-10-01T17:06:30.034Z,67.88
2022-10-01T17:08:56.435Z,67.28
2022-10-01T17:11:22.830Z,67.87
2022-10-01T17:13:49.157Z,68.53
2022-10-01T17:16:15.515Z,68.90
2022-10-01T17:18:41.866Z,69.63
2022-10-01T17:21:08.203Z,69.18
2022-10-01T17:23:34.556Z,70.18
2022-10-01T17:26:00.890Z,69.69
2022-10-01T17:28:27.294Z,70.74
2022-10-01T17:30:53.643Z,70.15
2022-10-01T17:33:19.967Z,70.57
2022-10-01T17:35:46.350Z,70.50
2022-10-01T17:38:12.694Z,70.63
2022-10-01T17:40:39.024Z,70.96
2022-10-01T17:43:05.357Z,70.44
2022-10-01T17:45:31.728Z,71.30
2022-10-01T17:47:58.069Z,71.84
2022-10-01T17:50:24.424Z,71.53
2022-10-01T17:52:50.761Z,71.65
2022-10-01T17:55:17.113Z,71.87
2022-10-01T17:57:43.479Z,72.02
2022-10-01T18:00:09.811Z,71.79
2022-10-01T18:02:41.990Z,71.91
2022-10-01T18:05:09.385Z,71.11
2022-10-01T18:07:35.739Z,71.24
2022-10-01T18:10:02.082Z,70.66
2022-10-01T18:12:28.425Z,70.59
2022-10-01T18:14:54.767Z,70.22
2022-10-01T18:17:21.091Z,70.26
2022-10-01T18:19:53.270Z,70.82
2022-10-01T18:22:20.158Z,70.19
2022-10-01T18:24:46.497Z,70.60
2022-10-01T18:27:12.822Z,69.95
2022-10-01T18:29:39.145Z,70.62
2022-10-01T18:32:05.496Z,70.02
2022-10-01T18:34:31.838Z,70.45
2022-10-01T18:36:58.249Z,70.48
2022-10-01T18:39:24.614Z,70.60
2022-10-01T18:41:50.982Z,70.95
2022-10-01T18:44:20.249Z,71.55
2022-10-01T18:46:46.970Z,70.91
2022-10-01T18:49:13.302Z,70.83
2022-10-01T18:51:39.628Z,71.14
2022-10-01T18:54:05.953Z,70.88
2022-10-01T18:56:32.582Z,71.50
2022-10-01T18:58:59.260Z,70.76
2022-10-01T19:01:25.700Z,70.15
2022-10-01T19:03:52.102Z,70.47
2022-10-01T19:06:18.440Z,71.38
2022-10-01T19:08:44.781Z,70.63
2022-10-01T19:11:15.745Z,69.70
2022-10-01T19:13:44.105Z,70.09
2022-10-01T19:16:10.478Z,69.78
2022-10-01T19:18:36.808Z,69.68
2022-10-01T19:21:03.129Z,69.45
2022-10-01T19:23:29.464Z,69.43
2022-10-01T19:25:55.790Z,70.07
2022-10-01T19:28:22.183Z,70.83
2022-10-01T19:30:48.562Z,70.00
2022-10-01T19:33:14.889Z,70.11
2022-10-01T19:35:41.236Z,69.88
2022-10-01T19:38:08.635Z,69.08
2022-10-01T19:40:34.960Z,69.67
2022-10-01T19:43:01.299Z,70.06
2022-10-01T19:45:27.634Z,70.44
2022-10-01T19:47:53.981Z,70.49
2022-10-01T19:50:20.326Z,69.59
2022-10-01T19:52:46.664Z,70.13
2022-10-01T19:55:12.999Z,70.92
2022-10-01T19:57:39.317Z,71.34
2022-10-01T20:00:05.659Z,71.94
2022-10-01T20:02:31.994Z,71.46
2022-10-01T20:04:58.320Z,72.05
2022-10-01T20:07:24.641Z,71.49
2022-10-01T20:09:50.975Z,71.45
2022-10-01T20:12:17.338Z,71.33
2022-10-01T20:14:43.679Z,71.45
2022-10-01T20:17:10.283Z,71.20
2022-10-01T20:19:36.601Z,71.44
2022-10-01T20:22:02.928Z,70.87
2022-10-01T20:24:29.265Z,70.88
2022-10-01T20:26:55.602Z,69.78
2022-10-01T20:29:21.933Z,69.00
2022-10-01T20:31:48.365Z,69.49
2022-10-01T20:34:14.785Z,69.34
2022-10-01T20:36:41.556Z,68.52
2022-10-01T20:39:08.068Z,69.12
2022-10-01T20:41:34.393Z,68.79
2022-10-01T20:44:00.723Z,69.43
2022-10-01T20:46:27.048Z,69.57
2022-10-01T20:48:53.370Z,69.26
2022-10-01T20:51:19.759Z,68.68
2022-10-01T20:53:46.076Z,68.88
2022-10-01T20:56:12.465Z,67.80
2022-10-01T20:58:38.784Z,68.00
2022-10-01T21:01:05.166Z,68.24
2022-10-01T21:03:31.643Z,67.95
2022-10-01T21:05:57.978Z,67.80
2022-10-01T21:08:24.316Z,68.64
2022-10-01T21:10:50.631Z,68.65
2022-10-01T21:13:16.956Z,67.88
2022-10-01T21:15:43.280Z,68.21
2022-10-01T21:18:09.612Z,67.93
2022-10-01T21:20:35.935Z,69.29
2022-10-01T21:23:02.264Z,67.56
2022-10-01T21:25:28.594Z,68.25
2022-10-01T21:27:54.925Z,68.13
2022-10-01T21:30:21.299Z,67.70
2022-10-01T21:32:47.637Z,66.84
2022-10-01T21:35:13.980Z,66.74
2022-10-01T21:37:40.318Z,66.83
2022-10-01T21:40:06.657Z,66.92
2022-10-01T21:42:32.981Z,66.44
2022-10-01T21:44:59.311Z,67.07
2022-10-01T21:47:25.650Z,66.38
2022-10-01T21:49:51.976Z,66.69
2022-10-01T21:52:18.306Z,66.48
2022-10-01T21:54:44.650Z,66.77
2022-10-01T21:57:12.176Z,67.11
2022-10-01T21:59:38.515Z,67.44
2022-10-01T22:02:04.911Z,67.06
2022-10-01T22:04:31.293Z,67.43
2022-10-01T22:06:57.622Z,67.09
2022-10-01T22:09:23.952Z,67.20
2022-10-01T22:11:50.290Z,67.32
2022-10-01T22:14:16.640Z,67.00
2022-10-01T22:16:43.042Z,66.54
2022-10-01T22:19:09.437Z,66.24
2022-10-01T22:21:35.765Z,66.63
2022-10-01T22:24:02.124Z,65.87
2022-10-01T22:26:28.458Z,65.82
2022-10-01T22:28:54.801Z,65.98
2022-10-01T22:31:21.160Z,65.63
2022-10-01T22:33:47.512Z,65.71
2022-10-01T22:36:13.866Z,65.54
2022-10-01T22:38:40.199Z,65.68
2022-10-01T22:41:06.551Z,64.76
2022-10-01T22:43:32.886Z,65.17
2022-10-01T22:45:59.299Z,64.81
2022-10-01T22:48:25.775Z,64.78
2022-10-01T22:50:52.092Z,64.96
2022-10-01T22:53:18.424Z,65.03
2022-10-01T22:55:44.762Z,64.62
2022-10-01T22:58:11.098Z,65.11
2022-10-01T23:00:37.488Z,64.89
2022-10-01T23:03:03.841Z,64.15
2022-10-01T23:05:30.187Z,64.31
2022-10-01T23:07:56.523Z,64.93
2022-10-01T23:10:22.869Z,64.12
2022-10-01T23:12:49.206Z,64.33
2022-10-01T23:15:15.534Z,64.38
2022-10-01T23:17:41.865Z,64.18
2022-10-01T23:20:08.183Z,64.21
2022-10-01T23:22:34.514Z,65.01
2022-10-01T23:25:00.847Z,64.38
2022-10-01T23:27:27.177Z,63.78
2022-10-01T23:29:53.491Z,64.26
2022-10-01T23:32:19.827Z,64.06
2022-10-01T23:34:46.163Z,64.89
2022-10-01T23:37:12.497Z,64.70
2022-10-01T23:39:38.812Z,64.59
2022-10-01T23:42:05.141Z,64.60
2022-10-01T23:44:31.479Z,64.36
2022-10-01T23:46:57.827Z,64.91
2022-10-01T23:49:24.157Z,64.13
2022-10-01T23:51:50.474Z,63.38
2022-10-01T23:54:16.807Z,63.89
2022-10-01T23:56:43.141Z,63.97
2022-10-01T23:59:09.455Z,64.01
